Time;durP1;ratioP1;P1;durP2;ratioP2;P2;SDS_P1;SDS_P2;PMS_P1;PMS_P2;Temp;Humidity;BMP_temperature;BMP_pressure;BME280_temperature;BME280_humidity;BME280_pressure;Samples;Min_cycle;Max_cycle;Signal;HPM_P1;HPM_P2
2023/08/05 07:01:34;;;;;;;1.60;0.97;;;16.90;99.90;19.60;101059.00;;;;6227921;22;2012829;-71
2023/08/05 07:04:05;;;;;;;1.53;0.60;;;17.10;99.90;20.30;101060.00;;;;6309521;22;20173;-72
2023/08/05 07:06:31;;;;;;;0.37;0.37;;;17.30;99.90;20.00;101018.00;;;;6308079;22;20198;-71
2023/08/05 07:09:06;;;;;;;0.20;0.20;;;17.40;99.90;20.20;101059.00;;;;6307615;22;20487;-72
2023/08/05 07:11:35;;;;;;;1.00;0.88;;;17.50;99.90;19.60;101070.00;;;;6307943;22;20147;-71
2023/08/05 07:14:01;;;;;;;0.30;0.30;;;17.30;99.90;20.30;101069.00;;;;6307896;22;20140;-72
2023/08/05 07:16:36;;;;;;;1.38;1.27;;;17.50;99.90;20.50;101057.00;;;;6282643;22;20470;-71
2023/08/05 07:19:18;;;;;;;0.20;0.20;;;17.60;99.90;20.70;101013.00;;;;6283792;22;20160;-71
2023/08/05 07:21:56;;;;;;;3.33;3.13;;;17.70;99.90;20.00;101057.00;;;;6307524;22;20140;-70
2023/08/05 07:24:45;;;;;;;1.67;1.58;;;17.50;99.90;19.30;101059.00;;;;6309101;22;20143;-71
2023/08/05 07:27:14;;;;;;;0.30;0.30;;;17.30;99.90;19.90;101053.00;;;;6307285;22;20231;-71
2023/08/05 07:30:01;;;;;;;2.30;2.10;;;17.50;99.90;19.70;101054.00;;;;6307395;22;20152;-71
2023/08/05 07:32:31;;;;;;;0.50;0.50;;;17.50;99.90;20.30;101052.00;;;;6307943;22;20167;-71
2023/08/05 07:35:00;;;;;;;1.33;1.33;;;17.50;99.90;20.80;101051.00;;;;6307444;22;20160;-72
2023/08/05 07:37:32;;;;;;;1.53;1.47;;;17.90;99.90;20.90;101041.00;;;;6307618;22;20141;-71
2023/08/05 07:40:04;;;;;;;0.43;0.43;;;18.10;99.90;21.60;101053.00;;;;6307621;22;20223;-72
2023/08/05 07:42:35;;;;;;;0.60;0.60;;;18.40;99.90;22.30;101067.00;;;;6307512;22;20180;-71
2023/08/05 07:45:11;;;;;;;2.25;2.08;;;18.90;99.90;21.20;101053.00;;;;6281209;22;20160;-71
2023/08/05 07:47:43;;;;;;;0.20;0.20;;;18.60;99.90;21.10;101057.00;;;;6309122;22;20140;-71
2023/08/05 07:50:10;;;;;;;1.10;1.00;;;18.50;99.90;21.10;101009.00;;;;6278142;22;20160;-71
2023/08/05 07:52:55;;;;;;;0.57;0.57;;;18.40;99.90;21.20;101057.00;;;;6307549;22;20219;-71
2023/08/05 07:56:01;;;;;;;0.30;0.30;;;18.30;99.90;21.00;101047.00;;;;6309189;22;20148;-71
2023/08/05 07:58:40;;;;;;;0.20;0.20;;;18.20;99.90;20.50;101044.00;;;;6307427;22;20156;-71
2023/08/05 08:01:45;;;;;;;0.77;0.77;;;18.10;99.90;21.30;101016.00;;;;6307156;22;20168;-71
2023/08/05 08:04:37;;;;;;;8.02;7.47;;;18.20;99.90;21.10;101029.00;;;;6304915;22;20166;-71
2023/08/05 08:07:35;;;;;;;0.20;0.20;;;18.30;99.90;21.00;101030.00;;;;6249620;22;20163;-71
2023/08/05 08:10:31;;;;;;;0.40;0.40;;;18.30;99.90;20.00;101026.00;;;;6296896;22;20160;-70
2023/08/05 08:13:20;;;;;;;0.20;0.20;;;18.00;99.90;20.40;100979.00;;;;6306608;22;20241;-70
2023/08/05 08:16:15;;;;;;;0.30;0.30;;;18.10;99.90;20.50;101021.00;;;;6306786;22;20164;-71
2023/08/05 08:19:04;;;;;;;1.93;1.07;;;17.90;99.90;21.20;101034.00;;;;6292308;22;20156;-71
2023/08/05 08:21:52;;;;;;;0.40;0.40;;;18.20;99.90;21.00;101006.00;;;;6281172;22;20198;-72
2023/08/05 08:24:36;;;;;;;0.10;0.10;;;18.30;99.90;21.70;101000.00;;;;6307428;22;20147;-71
2023/08/05 08:27:12;;;;;;;0.65;0.65;;;18.50;99.90;21.70;101023.00;;;;6307246;22;20164;-71
2023/08/05 08:30:18;;;;;;;2.30;0.55;;;18.90;99.90;21.10;100985.00;;;;6306765;22;20592;-71
2023/08/05 08:33:09;;;;;;;0.40;0.40;;;19.00;99.90;22.50;101023.00;;;;6308604;22;20152;-71
2023/08/05 08:36:00;;;;;;;1.52;1.45;;;19.40;99.90;21.80;101016.00;;;;6306668;22;20277;-71
2023/08/05 08:38:32;;;;;;;0.10;0.10;;;19.60;99.90;24.20;101026.00;;;;6188533;23;20161;-71
2023/08/05 08:41:21;;;;;;;0.38;0.38;;;20.40;99.90;23.60;101017.00;;;;6296339;22;20206;-70
2023/08/05 08:44:26;;;;;;;0.57;0.57;;;20.90;99.90;23.20;101010.00;;;;6281288;22;20225;-71
2023/08/05 08:47:23;;;;;;;0.20;0.20;;;20.50;99.90;22.60;101006.00;;;;6306882;22;20167;-71
2023/08/05 08:49:56;;;;;;;0.30;0.30;;;20.30;99.90;21.80;100998.00;;;;6306858;22;20467;-70
2023/08/05 08:53:03;;;;;;;0.10;0.10;;;19.60;99.90;23.00;101011.00;;;;6308376;22;20137;-70
2023/08/05 08:56:30;;;;;;;0.20;0.20;;;19.60;99.90;21.60;100987.00;;;;6304730;22;20653;-71
2023/08/05 08:59:21;;;;;;;1.00;0.90;;;19.60;99.90;23.00;100992.00;;;;6313608;22;20167;-71
2023/08/05 09:02:29;;;;;;;1.08;0.63;;;19.90;99.90;22.60;100983.00;;;;6306889;22;20197;-71
2023/08/05 09:05:16;;;;;;;3.53;1.48;;;20.00;99.90;21.40;100971.00;;;;6306235;22;20152;-71
2023/08/05 09:08:13;;;;;;;0.40;0.40;;;19.60;99.90;21.40;100970.00;;;;6308021;22;20183;-70
2023/08/05 09:12:14;;;;;;;0.20;0.20;;;19.40;99.90;22.90;101003.00;;;;6295478;22;20167;-70
2023/08/05 09:15:21;;;;;;;0.40;0.40;;;20.10;99.90;21.80;100989.00;;;;6291001;22;20542;-71
2023/08/05 09:18:13;;;;;;;0.77;0.57;;;19.80;99.90;21.20;100940.00;;;;6292370;22;20155;-70
2023/08/05 09:21:21;;;;;;;0.20;0.20;;;19.20;99.90;21.80;100981.00;;;;6307073;22;20168;-71
2023/08/05 09:24:07;;;;;;;1.42;0.68;;;19.00;99.90;21.40;100969.00;;;;6306781;22;20164;-71
2023/08/05 09:26:58;;;;;;;0.30;0.30;;;18.90;99.90;20.70;100973.00;;;;6283026;22;20529;-71
2023/08/05 09:29:36;;;;;;;0.20;0.20;;;18.60;99.90;21.70;100983.00;;;;6280716;22;20542;-70
2023/08/05 09:32:30;;;;;;;0.70;0.47;;;18.60;99.90;21.10;100970.00;;;;6306714;22;20219;-71
2023/08/05 09:35:16;;;;;;;0.65;0.57;;;18.50;99.90;21.00;100978.00;;;;6305305;22;20222;-71
2023/08/05 09:38:28;;;;;;;0.20;0.20;;;18.50;99.90;20.90;100963.00;;;;6306241;22;20181;-71
2023/08/05 09:41:35;;;;;;;0.50;0.50;;;18.10;99.90;21.30;100964.00;;;;6305176;22;20186;-71
2023/08/05 09:44:21;;;;;;;0.60;0.60;;;18.30;99.90;22.10;100959.00;;;;6306967;22;20163;-71
2023/08/05 09:47:17;;;;;;;0.10;0.10;;;18.60;99.90;22.60;100952.00;;;;6306105;22;20569;-71
2023/08/05 09:50:14;;;;;;;0.10;0.10;;;19.00;99.90;22.80;100957.00;;;;6306676;22;20223;-71
2023/08/05 09:53:11;;;;;;;0.40;0.40;;;19.30;99.90;22.00;100951.00;;;;6306148;22;20148;-70
2023/08/05 09:56:06;;;;;;;0.15;0.15;;;19.40;99.90;22.30;100930.00;;;;6306664;22;20144;-71
2023/08/05 09:59:05;;;;;;;0.10;0.10;;;19.30;99.90;22.80;100940.00;;;;6305840;22;20133;-71
2023/08/05 10:01:55;;;;;;;1.38;0.60;;;19.70;99.90;23.20;100979.00;;;;6295554;22;20266;-71
2023/08/05 10:04:44;;;;;;;0.13;0.13;;;20.10;99.90;23.00;100975.00;;;;6305903;22;20247;-71
2023/08/05 10:07:40;;;;;;;0.10;0.10;;;20.00;99.90;21.80;100966.00;;;;6306058;22;20152;-70
2023/08/05 10:10:17;;;;;;;1.58;1.17;;;19.40;99.90;21.20;100929.00;;;;6292710;22;20160;-70
2023/08/05 10:13:22;;;;;;;0.20;0.20;;;18.90;99.90;20.10;100905.00;;;;6305960;22;20144;-71
2023/08/05 10:15:58;;;;;;;0.10;0.10;;;18.30;99.90;21.20;100931.00;;;;6162687;23;20161;-71
2023/08/05 10:19:12;;;;;;;;;;;;;;;;;;;;;
2023/08/05 10:34:11;;;;;;;0.10;0.10;;;17.70;99.90;21.30;100911.00;;;;5069716;28;20538;-70
2023/08/05 10:37:24;;;;;;;0.10;0.10;;;18.20;99.90;21.30;100893.00;;;;5066143;28;20208;-70
2023/08/05 10:40:22;;;;;;;1.60;1.03;;;18.50;99.90;20.80;100906.00;;;;5041996;28;20617;-70
2023/08/05 10:43:00;;;;;;;0.10;0.10;;;18.30;99.90;21.80;100899.00;;;;5048999;28;20208;-70
2023/08/05 10:45:58;;;;;;;1.07;1.03;;;18.50;99.90;20.60;100902.00;;;;5043329;28;20192;-70
2023/08/05 10:48:45;;;;;;;0.30;0.30;;;18.50;99.90;20.10;100896.00;;;;5047229;28;20647;-69
2023/08/05 10:51:35;;;;;;;0.17;0.17;;;18.00;99.90;20.60;100887.00;;;;5048003;28;20192;-70
2023/08/05 10:54:31;;;;;;;0.30;0.30;;;17.90;99.90;21.00;100885.00;;;;5049608;28;20650;-70
2023/08/05 10:57:00;;;;;;;0.30;0.30;;;18.00;99.90;20.80;100889.00;;;;5044360;28;20201;-70
2023/08/05 11:00:07;;;;;;;0.10;0.10;;;18.10;99.90;21.20;100891.00;;;;5048737;28;20220;-70
2023/08/05 11:03:24;;;;;;;0.17;0.17;;;18.00;99.90;21.00;100903.00;;;;5039246;28;20193;-70
2023/08/05 11:06:17;;;;;;;0.20;0.20;;;18.10;99.90;21.40;100896.00;;;;5023186;28;20280;-69
2023/08/05 11:09:08;;;;;;;0.20;0.20;;;18.10;99.90;21.80;100894.00;;;;5043210;28;20651;-70
2023/08/05 11:12:25;;;;;;;0.20;0.20;;;18.20;99.90;21.40;100867.00;;;;5032157;28;20651;-70
2023/08/05 11:15:12;;;;;;;3.13;0.60;;;17.90;99.90;19.60;100848.00;;;;5048119;28;20193;-70
2023/08/05 11:18:03;;;;;;;0.30;0.30;;;17.40;99.90;20.10;100876.00;;;;5048268;28;20248;-70
2023/08/05 11:20:52;;;;;;;0.23;0.23;;;17.40;99.90;20.20;100879.00;;;;5048459;28;20209;-70
2023/08/05 11:23:46;;;;;;;0.30;0.30;;;17.40;99.90;20.30;100889.00;;;;5032155;28;20210;-70
2023/08/05 11:26:32;;;;;;;0.20;0.20;;;17.50;99.90;20.80;100876.00;;;;5046914;28;20296;-70
2023/08/05 11:29:15;;;;;;;0.20;0.20;;;17.70;99.90;20.90;100873.00;;;;5048188;28;20211;-70
2023/08/05 11:31:52;;;;;;;1.43;1.33;;;17.70;99.90;19.90;100863.00;;;;5042002;28;20228;-70
2023/08/05 11:34:22;;;;;;;0.87;0.87;;;17.70;99.90;20.80;100869.00;;;;5039763;28;20192;-70
2023/08/05 11:37:15;;;;;;;0.20;0.20;;;17.80;99.90;20.90;100862.00;;;;5049243;28;20193;-70
2023/08/05 11:40:04;;;;;;;0.20;0.20;;;17.80;99.90;21.00;100826.00;;;;5047590;28;20197;-70
2023/08/05 11:43:01;;;;;;;0.20;0.20;;;17.90;99.90;21.30;100867.00;;;;5038454;28;20209;-70
2023/08/05 11:45:51;;;;;;;1.80;1.70;;;18.10;99.90;20.80;100860.00;;;;5029973;28;20715;-70
2023/08/05 11:49:07;;;;;;;0.50;0.50;;;18.20;99.90;20.30;100849.00;;;;5018255;28;20414;-69
2023/08/05 11:51:53;;;;;;;0.93;0.93;;;18.10;99.90;19.90;100829.00;;;;5047864;28;20211;-70
2023/08/05 11:54:34;;;;;;;0.67;0.67;;;17.60;99.90;21.40;100852.00;;;;5050904;28;20273;-70
2023/08/05 11:57:23;;;;;;;0.50;0.50;;;17.90;99.90;21.70;100849.00;;;;5007827;28;20586;-70
2023/08/05 12:00:13;;;;;;;0.10;0.10;;;18.40;99.90;20.50;100810.00;;;;5046995;28;20200;-71
2023/08/05 12:03:03;;;;;;;0.10;0.10;;;17.90;99.90;21.40;100826.00;;;;5032629;28;20252;-70
2023/08/05 12:05:46;;;;;;;0.20;0.20;;;18.00;99.90;21.00;100825.00;;;;5017653;28;20285;-70
2023/08/05 12:08:41;;;;;;;0.20;0.20;;;18.30;99.90;20.50;100815.00;;;;5017642;28;20243;-70
2023/08/05 12:11:38;;;;;;;0.30;0.30;;;17.90;99.90;21.10;100814.00;;;;5009274;28;20186;-70
2023/08/05 12:14:52;;;;;;;0.10;0.10;;;18.10;99.90;19.90;100793.00;;;;5010061;28;20219;-70
2023/08/05 12:17:47;;;;;;;0.40;0.40;;;17.70;99.90;20.10;100796.00;;;;5033609;28;20187;-70
2023/08/05 12:20:36;;;;;;;0.23;0.23;;;17.80;99.90;20.20;100772.00;;;;5033478;28;20206;-69
2023/08/05 12:23:39;;;;;;;0.30;0.30;;;17.60;99.90;20.70;100767.00;;;;5031498;28;20657;-71
2023/08/05 12:26:28;;;;;;;0.20;0.20;;;18.00;99.90;21.10;100775.00;;;;5025412;28;20185;-70
2023/08/05 12:29:21;;;;;;;0.10;0.10;;;18.20;99.90;21.60;100784.00;;;;5033917;28;20294;-70
2023/08/05 12:32:28;;;;;;;0.30;0.30;;;18.40;99.90;21.00;100757.00;;;;5034866;28;20222;-70
2023/08/05 12:35:37;;;;;;;0.10;0.10;;;18.40;99.90;21.30;100744.00;;;;5033883;28;20183;-69
2023/08/05 12:38:26;;;;;;;0.20;0.20;;;18.30;99.90;22.50;100745.00;;;;5026620;28;20195;-70
2023/08/05 12:41:24;;;;;;;2.30;0.90;;;18.70;99.90;21.80;100741.00;;;;5016855;28;20224;-71
2023/08/05 12:44:20;;;;;;;0.77;0.77;;;18.70;99.90;21.30;100720.00;;;;5028420;28;20210;-70
2023/08/05 12:46:58;;;;;;;0.52;0.52;;;18.70;99.90;21.00;100717.00;;;;5024888;28;20281;-70
2023/08/05 12:49:52;;;;;;;0.52;0.52;;;18.40;99.90;20.90;100713.00;;;;5033657;28;20641;-70
2023/08/05 12:52:40;;;;;;;0.25;0.25;;;18.10;99.90;21.00;100699.00;;;;5028609;28;20233;-70
2023/08/05 12:55:29;;;;;;;0.40;0.40;;;18.00;99.90;20.40;100655.00;;;;5032507;28;20190;-71
2023/08/05 12:58:34;;;;;;;0.73;0.73;;;17.70;99.90;20.00;100669.00;;;;5021920;28;20206;-70
2023/08/05 13:01:09;;;;;;;0.80;0.80;;;17.40;99.90;20.00;100633.00;;;;5030436;28;20185;-71
2023/08/05 13:04:21;;;;;;;1.90;1.03;;;17.10;99.90;20.00;100678.00;;;;5032989;28;20245;-70
2023/08/05 13:07:12;;;;;;;0.40;0.40;;;17.00;99.90;19.60;100661.00;;;;5052268;28;20206;-71
2023/08/05 13:10:16;;;;;;;0.77;0.77;;;16.90;99.90;19.70;100650.00;;;;5039568;28;20188;-71
2023/08/05 13:13:04;;;;;;;0.40;0.40;;;16.80;99.90;19.80;100652.00;;;;5032755;28;20208;-70
2023/08/05 13:16:00;;;;;;;2.77;1.07;;;16.90;99.90;20.10;100639.00;;;;5028749;28;20267;-70
2023/08/05 13:18:56;;;;;;;0.50;0.50;;;16.90;99.90;19.50;100626.00;;;;5032642;28;20223;-70
2023/08/05 13:21:49;;;;;;;1.63;1.52;;;16.70;99.90;19.40;100626.00;;;;5017974;28;20427;-71
2023/08/05 13:24:44;;;;;;;1.23;1.23;;;16.80;99.90;19.50;100581.00;;;;5032537;28;20213;-70
2023/08/05 13:27:35;;;;;;;1.47;1.43;;;16.90;99.90;19.80;100614.00;;;;5028716;28;20201;-70
2023/08/05 13:30:26;;;;;;;1.40;1.40;;;17.00;99.90;19.90;100607.00;;;;5028602;28;20259;-70
2023/08/05 13:33:13;;;;;;;2.60;1.60;;;17.00;99.90;20.00;100608.00;;;;5029028;28;20205;-71
2023/08/05 13:35:55;;;;;;;2.47;2.37;;;17.20;99.90;20.40;100606.00;;;;5028125;28;20520;-71
2023/08/05 13:38:46;;;;;;;2.73;2.53;;;17.40;99.90;20.40;100595.00;;;;5032561;28;20182;-71
2023/08/05 13:41:36;;;;;;;1.37;1.37;;;17.50;99.90;19.50;100615.00;;;;5017147;28;20201;-71
2023/08/05 13:44:26;;;;;;;1.20;1.20;;;17.20;99.90;19.50;100616.00;;;;5030251;28;20652;-70
2023/08/05 13:47:12;;;;;;;1.00;1.00;;;17.20;99.90;19.10;100620.00;;;;5031223;28;20199;-70
2023/08/05 13:50:18;;;;;;;2.33;2.20;;;17.00;99.90;18.50;100580.00;;;;5031276;28;20190;-70
2023/08/05 13:53:27;;;;;;;1.20;1.10;;;16.70;99.90;18.20;100613.00;;;;5014952;28;20224;-70
2023/08/05 13:56:16;;;;;;;1.33;1.10;;;16.40;99.90;17.70;100605.00;;;;5014255;28;20212;-70
2023/08/05 13:59:14;;;;;;;1.60;1.50;;;16.00;99.90;18.50;100614.00;;;;5031166;28;20720;-70
2023/08/05 14:02:04;;;;;;;0.90;0.90;;;16.10;99.90;18.70;100612.00;;;;5007967;28;20186;-70
2023/08/05 14:05:13;;;;;;;0.73;0.73;;;16.20;99.90;18.80;100606.00;;;;5015018;28;20206;-70
2023/08/05 14:08:19;;;;;;;0.70;0.70;;;16.50;99.90;19.70;100594.00;;;;5025915;28;20266;-71
2023/08/05 14:10:52;;;;;;;0.73;0.73;;;16.80;99.90;19.60;100598.00;;;;5012389;28;20201;-70
2023/08/05 14:13:46;;;;;;;1.20;1.00;;;17.10;99.90;20.00;100590.00;;;;5030676;28;20217;-70
2023/08/05 14:16:38;;;;;;;0.70;0.70;;;17.30;99.90;19.50;100526.00;;;;5013628;28;20189;-70
2023/08/05 14:20:00;;;;;;;0.80;0.80;;;17.30;99.90;19.60;100555.00;;;;5019111;28;20567;-69
2023/08/05 14:22:57;;;;;;;0.67;0.67;;;17.20;99.90;19.80;100559.00;;;;5013845;28;20224;-70
2023/08/05 14:26:09;;;;;;;0.60;0.60;;;17.30;99.90;20.20;100556.00;;;;5040783;28;20189;-70
2023/08/05 14:28:40;;;;;;;0.80;0.80;;;17.50;99.90;20.20;100546.00;;;;5032014;28;20190;-71
2023/08/05 14:31:32;;;;;;;1.00;1.00;;;17.60;99.90;20.20;100535.00;;;;5031794;28;20649;-70
2023/08/05 14:34:28;;;;;;;0.70;0.70;;;17.60;99.90;20.50;100553.00;;;;5022867;28;20557;-70
2023/08/05 14:37:16;;;;;;;0.50;0.50;;;17.80;99.90;20.80;100551.00;;;;5030104;28;20658;-71
2023/08/05 14:39:59;;;;;;;0.50;0.50;;;18.00;99.90;21.20;100539.00;;;;5026540;28;20182;-71
2023/08/05 14:43:06;;;;;;;3.90;3.33;;;18.10;99.90;21.00;100533.00;;;;5015123;28;20558;-70
2023/08/05 14:46:09;;;;;;;0.97;0.70;;;18.10;99.90;20.30;100514.00;;;;5026797;28;20209;-70
2023/08/05 14:48:58;;;;;;;0.70;0.70;;;18.00;99.90;20.30;100525.00;;;;5022054;28;20189;-70
2023/08/05 14:52:02;;;;;;;0.60;0.60;;;17.90;99.90;20.80;100516.00;;;;5030849;28;20221;-70
2023/08/05 14:54:45;;;;;;;1.00;0.90;;;17.90;99.90;20.70;100511.00;;;;5029844;28;20188;-70
2023/08/05 14:57:22;;;;;;;0.98;0.90;;;17.90;99.90;20.10;100486.00;;;;5032418;28;20186;-70
2023/08/05 15:00:21;;;;;;;0.50;0.50;;;17.80;99.90;20.30;100496.00;;;;5004274;28;20231;-69
2023/08/05 15:03:03;;;;;;;0.60;0.60;;;17.80;99.90;20.40;100455.00;;;;5012597;28;20196;-71
2023/08/05 15:05:56;;;;;;;0.93;0.93;;;17.70;99.90;20.20;100483.00;;;;5031554;28;20521;-70
2023/08/05 15:08:46;;;;;;;0.73;0.50;;;17.70;99.90;19.80;100439.00;;;;5026535;28;20225;-70
2023/08/05 15:11:49;;;;;;;0.47;0.47;;;17.50;99.90;20.50;100431.00;;;;4985301;28;20249;-70
2023/08/05 15:14:40;;;;;;;0.90;0.90;;;17.70;99.90;20.50;100466.00;;;;5021452;28;20594;-70
2023/08/05 15:17:40;;;;;;;0.30;0.30;;;17.80;99.90;20.00;100431.00;;;;5030553;28;20177;-70
2023/08/05 15:20:35;;;;;;;0.40;0.40;;;17.60;99.90;20.60;100460.00;;;;5034794;28;20263;-70
2023/08/05 15:23:24;;;;;;;1.37;0.90;;;17.60;99.90;19.70;100432.00;;;;5034542;28;20282;-70
2023/08/05 15:26:10;;;;;;;0.40;0.40;;;17.40;99.90;19.90;100423.00;;;;5034922;28;20650;-70
2023/08/05 15:28:56;;;;;;;0.60;0.60;;;17.20;99.90;18.80;100405.00;;;;5024438;28;20189;-71
2023/08/05 15:31:51;;;;;;;1.77;1.77;;;16.80;99.90;18.80;100397.00;;;;5034692;28;20198;-71
2023/08/05 15:34:39;;;;;;;1.80;1.80;;;16.50;99.90;19.00;100401.00;;;;5031088;28;20611;-71
2023/08/05 15:37:49;;;;;;;1.70;1.70;;;16.50;99.90;19.10;100396.00;;;;5034941;28;20550;-72
2023/08/05 15:40:38;;;;;;;2.10;2.10;;;16.50;99.90;19.10;100392.00;;;;5016288;28;20230;-72
2023/08/05 15:43:27;;;;;;;1.90;1.90;;;16.50;99.90;18.90;100371.00;;;;5020782;28;20204;-72
2023/08/05 15:46:27;;;;;;;2.27;2.27;;;16.50;99.90;18.80;100387.00;;;;5033318;28;20201;-71
2023/08/05 15:49:18;;;;;;;2.47;2.37;;;16.40;99.90;18.90;100388.00;;;;5035639;28;20192;-72
2023/08/05 15:52:12;;;;;;;2.40;2.37;;;16.40;99.90;19.30;100388.00;;;;5034009;28;20198;-71
2023/08/05 15:55:04;;;;;;;2.67;2.47;;;16.50;99.90;19.20;100376.00;;;;5034341;28;20204;-71
2023/08/05 15:57:50;;;;;;;2.47;2.40;;;16.60;99.90;19.60;100379.00;;;;5027084;28;20648;-71
2023/08/05 16:00:38;;;;;;;2.30;2.20;;;16.80;99.90;19.10;100377.00;;;;5014144;28;20224;-71
2023/08/05 16:03:21;;;;;;;1.83;1.83;;;16.70;99.90;19.30;100359.00;;;;5008299;28;20297;-71
2023/08/05 16:06:32;;;;;;;1.60;1.60;;;16.70;99.90;19.20;100369.00;;;;5031916;28;20710;-71
2023/08/05 16:09:10;;;;;;;1.87;1.87;;;16.70;99.90;19.30;100362.00;;;;5035482;28;20279;-72
2023/08/05 16:12:01;;;;;;;2.30;1.87;;;16.80;99.90;18.80;100351.00;;;;5017256;28;20216;-72
2023/08/05 16:14:57;;;;;;;1.70;1.70;;;16.60;99.90;19.00;100342.00;;;;5034101;28;20600;-72
2023/08/05 16:17:46;;;;;;;2.33;2.23;;;16.60;99.90;19.20;100344.00;;;;5035142;28;20215;-71
2023/08/05 16:20:34;;;;;;;1.50;1.50;;;16.70;99.90;19.10;100341.00;;;;5066316;28;20246;-72
2023/08/05 16:23:43;;;;;;;2.57;2.47;;;16.60;99.90;19.20;100325.00;;;;5026385;28;20673;-72
2023/08/05 16:26:29;;;;;;;1.73;1.73;;;16.60;99.90;19.30;100312.00;;;;5008687;28;20204;-72
2023/08/05 16:29:36;;;;;;;1.40;1.40;;;16.70;99.90;19.90;100309.00;;;;5033811;28;20187;-72
2023/08/05 16:32:28;;;;;;;2.00;1.90;;;16.80;99.90;19.50;100304.00;;;;5029074;28;20261;-72
2023/08/05 16:35:17;;;;;;;1.87;1.87;;;16.90;99.90;19.70;100293.00;;;;5011156;28;20196;-72
2023/08/05 16:38:03;;;;;;;1.83;1.83;;;17.00;99.90;19.40;100290.00;;;;5011022;28;20252;-72
2023/08/05 16:40:54;;;;;;;2.00;1.90;;;16.90;99.90;19.20;100278.00;;;;5013899;28;20198;-71
2023/08/05 16:43:43;;;;;;;1.93;1.83;;;16.80;99.90;19.60;100283.00;;;;5064082;28;20207;-72
2023/08/05 16:46:41;;;;;;;2.10;2.00;;;16.80;99.90;19.10;100283.00;;;;5033865;28;20188;-72
2023/08/05 16:49:38;;;;;;;2.00;1.90;;;16.80;99.90;19.50;100275.00;;;;5015501;28;20258;-72
2023/08/05 16:52:45;;;;;;;1.53;1.53;;;16.70;99.90;19.00;100276.00;;;;5024713;28;20208;-72
2023/08/05 16:55:36;;;;;;;2.27;2.07;;;16.70;99.90;19.00;100253.00;;;;5005097;28;20280;-72
2023/08/05 16:58:48;;;;;;;1.40;1.40;;;16.70;99.90;19.70;100261.00;;;;5034142;28;20184;-72
2023/08/05 17:01:55;;;;;;;1.70;1.70;;;16.80;99.90;19.10;100233.00;;;;5007032;28;20296;-72
2023/08/05 17:04:47;;;;;;;2.13;1.93;;;16.80;99.90;19.20;100252.00;;;;5023979;28;20192;-72
2023/08/05 17:07:34;;;;;;;1.43;1.43;;;16.70;99.90;19.10;100249.00;;;;5017254;28;20199;-72
2023/08/05 17:10:26;;;;;;;1.50;1.50;;;16.70;99.90;19.20;100253.00;;;;5066273;28;20188;-72
2023/08/05 17:13:15;;;;;;;1.70;1.60;;;16.70;99.90;19.10;100242.00;;;;5029090;28;20325;-72
2023/08/05 17:16:45;;;;;;;1.67;1.57;;;16.70;99.90;19.00;100208.00;;;;5032896;28;20183;-72
2023/08/05 17:19:34;;;;;;;1.50;1.50;;;16.70;99.90;19.10;100241.00;;;;5032585;28;20234;-71
2023/08/05 17:22:29;;;;;;;1.30;1.30;;;16.70;99.90;19.50;100225.00;;;;5033591;28;20215;-71
2023/08/05 17:25:26;;;;;;;1.77;1.77;;;16.80;99.90;19.30;100221.00;;;;5038158;28;20181;-71
2023/08/05 17:28:22;;;;;;;1.60;1.60;;;16.80;99.90;19.80;100209.00;;;;5032577;28;20259;-72
2023/08/05 17:31:37;;;;;;;5.23;2.43;;;16.90;99.90;19.40;100212.00;;;;5061772;28;20280;-71
2023/08/05 17:34:23;;;;;;;1.97;1.87;;;16.90;99.90;19.10;100208.00;;;;5033474;28;20216;-71
2023/08/05 17:37:18;;;;;;;2.27;2.17;;;16.90;99.90;19.40;100208.00;;;;5023265;28;20184;-71
2023/08/05 17:40:08;;;;;;;1.70;1.70;;;16.90;99.90;19.80;100195.00;;;;5012665;28;20536;-71
2023/08/05 17:43:00;;;;;;;1.70;1.70;;;17.00;99.90;20.10;100176.00;;;;5038479;28;20214;-70
2023/08/05 17:45:58;;;;;;;2.27;2.27;;;17.10;99.90;19.90;100192.00;;;;4995765;28;20205;-72
2023/08/05 17:48:49;;;;;;;1.70;1.70;;;17.20;99.90;20.20;100192.00;;;;4990341;28;20581;-72
2023/08/05 17:51:46;;;;;;;1.87;1.87;;;17.20;99.90;20.10;100183.00;;;;5011220;28;20228;-71
2023/08/05 17:54:30;;;;;;;1.60;1.60;;;17.20;99.90;19.50;100188.00;;;;5012890;28;20179;-71
2023/08/05 17:57:26;;;;;;;1.80;1.80;;;17.00;99.90;19.20;100152.00;;;;5028991;28;20695;-71
2023/08/05 17:59:52;;;;;;;1.43;1.43;;;16.80;99.90;19.60;100182.00;;;;5007630;28;20205;-71
2023/08/05 18:02:21;;;;;;;2.47;2.27;;;16.80;99.90;19.40;100201.00;;;;5032229;28;20203;-71
2023/08/05 18:05:00;;;;;;;1.30;1.30;;;16.80;99.90;19.10;100198.00;;;;5015704;28;20275;-72
2023/08/05 18:08:09;;;;;;;1.73;1.63;;;16.70;99.90;19.20;100195.00;;;;5016002;28;20276;-71
2023/08/05 18:11:06;;;;;;;1.80;1.80;;;16.70;99.90;19.60;100194.00;;;;5019051;28;20550;-71
2023/08/05 18:13:50;;;;;;;1.40;1.40;;;16.80;99.90;19.90;100188.00;;;;5014495;28;20261;-72
2023/08/05 18:16:43;;;;;;;1.33;1.33;;;17.00;99.90;19.50;100191.00;;;;5032786;28;20190;-72
2023/08/05 18:19:50;;;;;;;1.10;1.10;;;16.80;99.90;19.30;100190.00;;;;5029519;28;20650;-72
2023/08/05 18:22:42;;;;;;;1.50;1.50;;;16.70;99.90;19.20;100173.00;;;;5031847;28;20278;-71
2023/08/05 18:25:39;;;;;;;1.60;1.60;;;16.70;99.90;19.90;100170.00;;;;5026659;28;20199;-72
2023/08/05 18:28:32;;;;;;;1.97;1.87;;;16.80;99.90;19.40;100160.00;;;;5025565;28;20233;-72
2023/08/05 18:31:18;;;;;;;1.30;1.30;;;16.70;99.90;19.90;100158.00;;;;5026085;28;20192;-72
2023/08/05 18:34:13;;;;;;;1.50;1.47;;;16.80;99.90;19.60;100147.00;;;;5031879;28;20281;-72
2023/08/05 18:37:07;;;;;;;1.63;1.53;;;16.80;99.90;19.10;100146.00;;;;5015183;28;20194;-71
2023/08/05 18:43:44;;;;;;;2.27;1.40;;;16.70;99.90;19.30;100144.00;;;;4992605;28;20221;-72
2023/08/05 18:47:24;;;;;;;1.53;1.43;;;16.70;99.90;19.60;100154.00;;;;5027893;28;20191;-71
2023/08/05 18:50:29;;;;;;;1.30;1.30;;;16.60;99.90;19.60;100149.00;;;;5018591;28;20344;-71
2023/08/05 18:53:24;;;;;;;1.30;1.30;;;16.70;99.90;19.70;100141.00;;;;5031449;28;20225;-72
2023/08/05 18:56:17;;;;;;;1.30;1.30;;;16.80;99.90;19.60;100144.00;;;;5046527;28;20199;-71
2023/08/05 18:59:09;;;;;;;1.30;1.30;;;16.80;99.90;19.40;100146.00;;;;5023480;28;20265;-71
2023/08/05 19:01:45;;;;;;;1.60;1.60;;;16.70;99.90;18.90;100129.00;;;;5035732;28;20267;-71
2023/08/05 19:04:49;;;;;;;1.10;1.10;;;16.60;99.90;19.20;100142.00;;;;5018716;28;20193;-72
2023/08/05 19:08:00;;;;;;;2.03;1.93;;;16.60;99.90;19.30;100131.00;;;;5013164;28;20642;-71
2023/08/05 19:11:14;;;;;;;0.90;0.90;;;16.70;99.90;19.00;100135.00;;;;5056146;28;20230;-72
2023/08/05 19:13:43;;;;;;;1.70;1.70;;;16.50;99.90;19.10;100133.00;;;;5023844;28;20196;-71
2023/08/05 19:17:13;;;;;;;1.10;1.10;;;16.50;99.90;19.00;100131.00;;;;5018740;28;20197;-72
2023/08/05 19:20:11;;;;;;;1.40;1.40;;;16.50;99.90;19.30;100136.00;;;;5022699;28;20220;-72
2023/08/05 19:23:09;;;;;;;1.40;1.40;;;16.50;99.90;19.10;100129.00;;;;5031970;28;20292;-72
2023/08/05 19:25:36;;;;;;;1.77;1.77;;;16.50;99.90;19.20;100131.00;;;;5035183;28;20542;-72
2023/08/05 19:28:23;;;;;;;1.37;1.37;;;16.40;99.90;19.20;100086.00;;;;5035733;28;20268;-71
2023/08/05 19:31:07;;;;;;;2.20;2.00;;;16.50;99.90;19.70;100110.00;;;;5030700;28;20571;-71
2023/08/05 19:33:50;;;;;;;1.27;1.27;;;16.60;99.90;19.60;100108.00;;;;5011657;28;20369;-72
2023/08/05 19:36:54;;;;;;;1.43;1.40;;;16.60;99.90;18.90;100093.00;;;;5063511;28;20190;-71
2023/08/05 19:39:43;;;;;;;1.10;1.10;;;16.50;99.90;19.00;100118.00;;;;5034858;28;20189;-71
2023/08/05 19:42:22;;;;;;;3.30;1.67;;;16.40;99.90;18.90;100111.00;;;;5035945;28;20270;-71
2023/08/05 19:45:16;;;;;;;2.67;1.57;;;16.40;99.90;19.20;100113.00;;;;5018259;28;20602;-71
2023/08/05 19:47:59;;;;;;;1.40;1.40;;;16.40;99.90;19.30;100087.00;;;;5034473;28;20186;-71
2023/08/05 19:50:50;;;;;;;1.10;1.10;;;16.40;99.90;18.50;100082.00;;;;5017877;28;20292;-70
2023/08/05 19:53:34;;;;;;;1.03;1.03;;;16.30;99.90;18.30;100117.00;;;;5044885;28;20225;-71